sensor_id;sensor_type;location;lat;lon;timestamp;P1;durP1;ratioP1;P2;durP2;ratioP2
562;SDS011;266;49.514;8.294;2023-11-21T00:00:15;1.20;;;1.10;;
562;SDS011;266;49.514;8.294;2023-11-21T00:02:45;5.60;;;1.60;;
562;SDS011;266;49.514;8.294;2023-11-21T00:05:14;1.93;;;1.80;;
562;SDS011;266;49.514;8.294;2023-11-21T00:07:42;1.97;;;1.30;;
562;SDS011;266;49.514;8.294;2023-11-21T00:10:11;1.37;;;1.27;;
562;SDS011;266;49.514;8.294;2023-11-21T00:12:40;1.97;;;1.27;;
562;SDS011;266;49.514;8.294;2023-11-21T00:15:09;2.70;;;1.50;;
562;SDS011;266;49.514;8.294;2023-11-21T00:17:38;1.20;;;1.10;;
562;SDS011;266;49.514;8.294;2023-11-21T00:20:08;1.83;;;1.60;;
562;SDS011;266;49.514;8.294;2023-11-21T00:22:39;1.87;;;1.47;;
562;SDS011;266;49.514;8.294;2023-11-21T00:25:08;1.70;;;1.60;;
562;SDS011;266;49.514;8.294;2023-11-21T00:27:36;1.57;;;1.47;;
562;SDS011;266;49.514;8.294;2023-11-21T00:30:05;4.70;;;1.70;;
562;SDS011;266;49.514;8.294;2023-11-21T00:32:35;2.67;;;2.27;;
562;SDS011;266;49.514;8.294;2023-11-21T00:35:04;1.70;;;1.53;;
562;SDS011;266;49.514;8.294;2023-11-21T00:37:33;3.70;;;1.93;;
562;SDS011;266;49.514;8.294;2023-11-21T00:40:02;5.77;;;1.73;;
562;SDS011;266;49.514;8.294;2023-11-21T00:42:32;3.00;;;1.87;;
562;SDS011;266;49.514;8.294;2023-11-21T00:45:00;4.90;;;2.07;;
562;SDS011;266;49.514;8.294;2023-11-21T00:47:29;4.07;;;1.70;;
562;SDS011;266;49.514;8.294;2023-11-21T00:49:57;2.40;;;1.87;;
562;SDS011;266;49.514;8.294;2023-11-21T00:52:25;2.90;;;2.00;;
562;SDS011;266;49.514;8.294;2023-11-21T00:54:55;3.77;;;1.83;;
562;SDS011;266;49.514;8.294;2023-11-21T00:57:26;1.83;;;1.73;;
562;SDS011;266;49.514;8.294;2023-11-21T00:59:54;2.43;;;1.50;;
562;SDS011;266;49.514;8.294;2023-11-21T01:02:22;1.50;;;1.40;;
562;SDS011;266;49.514;8.294;2023-11-21T01:04:52;2.47;;;1.67;;
562;SDS011;266;49.514;8.294;2023-11-21T01:07:20;4.03;;;1.77;;
562;SDS011;266;49.514;8.294;2023-11-21T01:09:49;2.20;;;1.50;;
562;SDS011;266;49.514;8.294;2023-11-21T01:12:18;1.43;;;1.30;;
562;SDS011;266;49.514;8.294;2023-11-21T01:14:46;1.87;;;1.77;;
562;SDS011;266;49.514;8.294;2023-11-21T01:17:14;6.17;;;1.97;;
562;SDS011;266;49.514;8.294;2023-11-21T01:19:43;1.80;;;1.70;;
562;SDS011;266;49.514;8.294;2023-11-21T01:22:11;2.77;;;2.00;;
562;SDS011;266;49.514;8.294;2023-11-21T01:24:39;1.67;;;1.57;;
562;SDS011;266;49.514;8.294;2023-11-21T01:27:08;4.33;;;2.20;;
562;SDS011;266;49.514;8.294;2023-11-21T01:29:37;5.10;;;1.77;;
562;SDS011;266;49.514;8.294;2023-11-21T01:32:06;1.60;;;1.50;;
562;SDS011;266;49.514;8.294;2023-11-21T01:34:34;1.40;;;1.30;;
562;SDS011;266;49.514;8.294;2023-11-21T01:37:02;7.20;;;1.90;;
562;SDS011;266;49.514;8.294;2023-11-21T01:39:31;3.13;;;1.83;;
562;SDS011;266;49.514;8.294;2023-11-21T01:41:59;6.17;;;1.87;;
562;SDS011;266;49.514;8.294;2023-11-21T01:44:27;2.67;;;1.80;;
562;SDS011;266;49.514;8.294;2023-11-21T01:46:57;1.60;;;1.50;;
562;SDS011;266;49.514;8.294;2023-11-21T01:49:25;1.70;;;1.60;;
562;SDS011;266;49.514;8.294;2023-11-21T01:51:53;3.87;;;2.33;;
562;SDS011;266;49.514;8.294;2023-11-21T01:54:21;2.03;;;1.70;;
562;SDS011;266;49.514;8.294;2023-11-21T01:56:49;2.00;;;1.80;;
562;SDS011;266;49.514;8.294;2023-11-21T01:59:18;3.07;;;1.60;;
562;SDS011;266;49.514;8.294;2023-11-21T02:01:48;1.70;;;1.60;;
562;SDS011;266;49.514;8.294;2023-11-21T02:04:19;2.07;;;1.87;;
562;SDS011;266;49.514;8.294;2023-11-21T02:06:47;2.17;;;2.07;;
562;SDS011;266;49.514;8.294;2023-11-21T02:09:17;1.80;;;1.70;;
562;SDS011;266;49.514;8.294;2023-11-21T02:11:50;1.80;;;1.70;;
562;SDS011;266;49.514;8.294;2023-11-21T02:14:20;2.77;;;1.90;;
562;SDS011;266;49.514;8.294;2023-11-21T02:16:48;2.67;;;2.03;;
562;SDS011;266;49.514;8.294;2023-11-21T02:19:20;1.97;;;1.53;;
562;SDS011;266;49.514;8.294;2023-11-21T02:21:52;2.53;;;1.70;;
562;SDS011;266;49.514;8.294;2023-11-21T02:24:21;1.90;;;1.80;;
562;SDS011;266;49.514;8.294;2023-11-21T02:26:49;2.23;;;1.40;;
562;SDS011;266;49.514;8.294;2023-11-21T02:29:18;2.50;;;1.43;;
562;SDS011;266;49.514;8.294;2023-11-21T02:31:51;2.53;;;1.90;;
562;SDS011;266;49.514;8.294;2023-11-21T02:34:23;3.30;;;2.00;;
562;SDS011;266;49.514;8.294;2023-11-21T02:36:52;1.87;;;1.53;;
562;SDS011;266;49.514;8.294;2023-11-21T02:39:21;4.50;;;2.00;;
562;SDS011;266;49.514;8.294;2023-11-21T02:41:50;2.03;;;1.90;;
562;SDS011;266;49.514;8.294;2023-11-21T02:44:18;1.70;;;1.60;;
562;SDS011;266;49.514;8.294;2023-11-21T02:46:46;3.07;;;2.20;;
562;SDS011;266;49.514;8.294;2023-11-21T02:49:15;2.37;;;1.87;;
562;SDS011;266;49.514;8.294;2023-11-21T02:51:43;3.83;;;1.93;;
562;SDS011;266;49.514;8.294;2023-11-21T02:54:12;2.93;;;2.30;;
562;SDS011;266;49.514;8.294;2023-11-21T02:56:43;3.17;;;1.90;;
562;SDS011;266;49.514;8.294;2023-11-21T02:59:12;3.00;;;1.70;;
562;SDS011;266;49.514;8.294;2023-11-21T03:01:40;4.53;;;2.20;;
562;SDS011;266;49.514;8.294;2023-11-21T03:04:08;2.50;;;2.13;;
562;SDS011;266;49.514;8.294;2023-11-21T03:06:36;4.00;;;2.27;;
562;SDS011;266;49.514;8.294;2023-11-21T03:09:04;2.40;;;1.93;;
562;SDS011;266;49.514;8.294;2023-11-21T03:11:32;1.77;;;1.60;;
562;SDS011;266;49.514;8.294;2023-11-21T03:14:02;2.63;;;1.50;;
562;SDS011;266;49.514;8.294;2023-11-21T03:16:30;1.93;;;1.80;;
562;SDS011;266;49.514;8.294;2023-11-21T03:18:59;1.50;;;1.30;;
562;SDS011;266;49.514;8.294;2023-11-21T03:21:27;2.90;;;2.10;;
562;SDS011;266;49.514;8.294;2023-11-21T03:23:55;3.43;;;1.77;;
562;SDS011;266;49.514;8.294;2023-11-21T03:26:23;1.60;;;1.50;;
562;SDS011;266;49.514;8.294;2023-11-21T03:28:51;2.33;;;1.60;;
562;SDS011;266;49.514;8.294;2023-11-21T03:31:21;2.33;;;2.13;;
562;SDS011;266;49.514;8.294;2023-11-21T03:33:49;1.90;;;1.70;;
562;SDS011;266;49.514;8.294;2023-11-21T03:36:18;1.73;;;1.43;;
562;SDS011;266;49.514;8.294;2023-11-21T03:38:47;2.90;;;2.00;;
562;SDS011;266;49.514;8.294;2023-11-21T03:41:16;1.67;;;1.30;;
562;SDS011;266;49.514;8.294;2023-11-21T03:43:44;2.20;;;1.83;;
562;SDS011;266;49.514;8.294;2023-11-21T03:46:12;2.73;;;2.10;;
562;SDS011;266;49.514;8.294;2023-11-21T03:48:41;2.10;;;1.47;;
562;SDS011;266;49.514;8.294;2023-11-21T03:51:09;1.50;;;1.40;;
562;SDS011;266;49.514;8.294;2023-11-21T03:53:37;2.10;;;1.90;;
562;SDS011;266;49.514;8.294;2023-11-21T03:56:05;3.47;;;1.70;;
562;SDS011;266;49.514;8.294;2023-11-21T03:58:34;3.07;;;2.00;;
562;SDS011;266;49.514;8.294;2023-11-21T04:01:05;3.50;;;1.73;;
562;SDS011;266;49.514;8.294;2023-11-21T04:03:33;3.20;;;2.30;;
562;SDS011;266;49.514;8.294;2023-11-21T04:06:02;4.20;;;1.80;;
562;SDS011;266;49.514;8.294;2023-11-21T04:08:32;2.20;;;2.00;;
562;SDS011;266;49.514;8.294;2023-11-21T04:11:01;3.17;;;1.70;;
562;SDS011;266;49.514;8.294;2023-11-21T04:13:29;2.00;;;1.73;;
562;SDS011;266;49.514;8.294;2023-11-21T04:15:57;1.73;;;1.63;;
562;SDS011;266;49.514;8.294;2023-11-21T04:18:25;2.23;;;2.03;;
562;SDS011;266;49.514;8.294;2023-11-21T04:20:53;2.87;;;1.60;;
562;SDS011;266;49.514;8.294;2023-11-21T04:23:22;2.50;;;1.60;;
562;SDS011;266;49.514;8.294;2023-11-21T04:25:50;2.43;;;2.23;;
562;SDS011;266;49.514;8.294;2023-11-21T04:28:20;3.03;;;1.30;;
562;SDS011;266;49.514;8.294;2023-11-21T04:30:48;1.80;;;1.60;;
562;SDS011;266;49.514;8.294;2023-11-21T04:33:16;2.57;;;1.70;;
562;SDS011;266;49.514;8.294;2023-11-21T04:35:44;3.80;;;2.13;;
562;SDS011;266;49.514;8.294;2023-11-21T04:38:13;2.90;;;1.93;;
562;SDS011;266;49.514;8.294;2023-11-21T04:40:42;4.07;;;1.87;;
562;SDS011;266;49.514;8.294;2023-11-21T04:43:10;1.80;;;1.67;;
562;SDS011;266;49.514;8.294;2023-11-21T04:45:41;2.20;;;2.00;;
562;SDS011;266;49.514;8.294;2023-11-21T04:48:09;2.30;;;2.10;;
562;SDS011;266;49.514;8.294;2023-11-21T04:50:37;1.80;;;1.70;;
562;SDS011;266;49.514;8.294;2023-11-21T04:53:05;2.10;;;1.90;;
562;SDS011;266;49.514;8.294;2023-11-21T04:55:33;2.40;;;2.30;;
562;SDS011;266;49.514;8.294;2023-11-21T04:58:03;3.27;;;2.33;;
562;SDS011;266;49.514;8.294;2023-11-21T05:00:31;2.50;;;2.30;;
562;SDS011;266;49.514;8.294;2023-11-21T05:03:00;4.50;;;3.10;;
562;SDS011;266;49.514;8.294;2023-11-21T05:05:28;3.23;;;2.50;;
562;SDS011;266;49.514;8.294;2023-11-21T05:07:57;4.33;;;3.03;;
562;SDS011;266;49.514;8.294;2023-11-21T05:10:24;1.60;;;1.50;;
562;SDS011;266;49.514;8.294;2023-11-21T05:12:52;2.47;;;1.80;;
562;SDS011;266;49.514;8.294;2023-11-21T05:15:23;1.90;;;1.70;;
562;SDS011;266;49.514;8.294;2023-11-21T05:17:51;2.57;;;1.37;;
562;SDS011;266;49.514;8.294;2023-11-21T05:20:20;1.77;;;1.67;;
562;SDS011;266;49.514;8.294;2023-11-21T05:22:48;2.17;;;1.90;;
562;SDS011;266;49.514;8.294;2023-11-21T05:25:16;2.43;;;2.23;;
562;SDS011;266;49.514;8.294;2023-11-21T05:27:45;2.13;;;1.93;;
562;SDS011;266;49.514;8.294;2023-11-21T05:30:13;2.33;;;2.13;;
562;SDS011;266;49.514;8.294;2023-11-21T05:32:43;2.50;;;2.03;;
562;SDS011;266;49.514;8.294;2023-11-21T05:35:12;2.00;;;1.80;;
562;SDS011;266;49.514;8.294;2023-11-21T05:37:43;2.60;;;2.40;;
562;SDS011;266;49.514;8.294;2023-11-21T05:40:12;2.27;;;2.07;;
562;SDS011;266;49.514;8.294;2023-11-21T05:42:41;2.40;;;2.20;;
562;SDS011;266;49.514;8.294;2023-11-21T05:45:09;3.07;;;2.40;;
562;SDS011;266;49.514;8.294;2023-11-21T05:47:39;3.90;;;2.67;;
562;SDS011;266;49.514;8.294;2023-11-21T05:50:10;2.63;;;2.43;;
562;SDS011;266;49.514;8.294;2023-11-21T05:52:41;2.70;;;2.50;;
562;SDS011;266;49.514;8.294;2023-11-21T05:55:10;3.13;;;2.80;;
562;SDS011;266;49.514;8.294;2023-11-21T05:57:40;2.70;;;2.50;;
562;SDS011;266;49.514;8.294;2023-11-21T06:00:10;2.80;;;2.53;;
562;SDS011;266;49.514;8.294;2023-11-21T06:02:48;3.53;;;2.63;;
562;SDS011;266;49.514;8.294;2023-11-21T06:05:21;3.90;;;3.50;;
562;SDS011;266;49.514;8.294;2023-11-21T06:07:51;3.43;;;3.13;;
562;SDS011;266;49.514;8.294;2023-11-21T06:10:20;4.10;;;3.40;;
562;SDS011;266;49.514;8.294;2023-11-21T06:12:51;6.70;;;3.50;;
562;SDS011;266;49.514;8.294;2023-11-21T06:15:20;4.20;;;3.53;;
562;SDS011;266;49.514;8.294;2023-11-21T06:17:49;4.40;;;3.73;;
562;SDS011;266;49.514;8.294;2023-11-21T06:20:21;3.33;;;3.00;;
562;SDS011;266;49.514;8.294;2023-11-21T06:22:50;4.83;;;3.90;;
562;SDS011;266;49.514;8.294;2023-11-21T06:25:18;5.47;;;4.97;;
562;SDS011;266;49.514;8.294;2023-11-21T06:27:47;4.93;;;4.43;;
562;SDS011;266;49.514;8.294;2023-11-21T06:30:15;4.40;;;4.00;;
562;SDS011;266;49.514;8.294;2023-11-21T06:32:45;4.33;;;3.80;;
562;SDS011;266;49.514;8.294;2023-11-21T06:35:15;6.13;;;4.37;;
562;SDS011;266;49.514;8.294;2023-11-21T06:37:45;5.50;;;4.00;;
562;SDS011;266;49.514;8.294;2023-11-21T06:40:15;5.03;;;4.43;;
562;SDS011;266;49.514;8.294;2023-11-21T06:42:44;4.63;;;4.00;;
562;SDS011;266;49.514;8.294;2023-11-21T06:45:13;6.37;;;4.37;;
562;SDS011;266;49.514;8.294;2023-11-21T06:47:41;5.40;;;4.10;;
562;SDS011;266;49.514;8.294;2023-11-21T06:50:10;7.10;;;4.73;;
562;SDS011;266;49.514;8.294;2023-11-21T06:52:38;4.40;;;4.00;;
562;SDS011;266;49.514;8.294;2023-11-21T06:55:08;5.33;;;4.30;;
562;SDS011;266;49.514;8.294;2023-11-21T06:57:37;7.10;;;5.10;;
562;SDS011;266;49.514;8.294;2023-11-21T07:00:05;5.10;;;4.17;;
562;SDS011;266;49.514;8.294;2023-11-21T07:02:35;5.00;;;3.93;;
562;SDS011;266;49.514;8.294;2023-11-21T07:05:05;5.60;;;4.80;;
562;SDS011;266;49.514;8.294;2023-11-21T07:07:33;5.60;;;3.80;;
562;SDS011;266;49.514;8.294;2023-11-21T07:10:03;5.70;;;4.30;;
562;SDS011;266;49.514;8.294;2023-11-21T07:12:33;5.43;;;4.90;;
562;SDS011;266;49.514;8.294;2023-11-21T07:15:01;7.57;;;4.97;;
562;SDS011;266;49.514;8.294;2023-11-21T07:17:31;7.57;;;5.73;;
562;SDS011;266;49.514;8.294;2023-11-21T07:20:01;7.93;;;4.30;;
562;SDS011;266;49.514;8.294;2023-11-21T07:22:30;5.37;;;4.77;;
562;SDS011;266;49.514;8.294;2023-11-21T07:24:58;5.63;;;4.47;;
562;SDS011;266;49.514;8.294;2023-11-21T07:27:26;5.20;;;4.40;;
562;SDS011;266;49.514;8.294;2023-11-21T07:29:56;7.50;;;4.67;;
562;SDS011;266;49.514;8.294;2023-11-21T07:32:24;5.87;;;4.07;;
562;SDS011;266;49.514;8.294;2023-11-21T07:34:52;4.73;;;4.23;;
562;SDS011;266;49.514;8.294;2023-11-21T07:37:23;7.13;;;4.83;;
562;SDS011;266;49.514;8.294;2023-11-21T07:39:55;6.83;;;4.37;;
562;SDS011;266;49.514;8.294;2023-11-21T07:42:23;6.53;;;4.50;;
562;SDS011;266;49.514;8.294;2023-11-21T07:44:53;3.87;;;3.20;;
562;SDS011;266;49.514;8.294;2023-11-21T07:47:22;5.23;;;4.03;;
562;SDS011;266;49.514;8.294;2023-11-21T07:49:53;5.10;;;4.00;;
562;SDS011;266;49.514;8.294;2023-11-21T07:52:23;6.60;;;4.90;;
562;SDS011;266;49.514;8.294;2023-11-21T07:54:51;4.97;;;4.03;;
562;SDS011;266;49.514;8.294;2023-11-21T07:57:19;4.77;;;4.37;;
562;SDS011;266;49.514;8.294;2023-11-21T07:59:47;9.17;;;4.80;;
562;SDS011;266;49.514;8.294;2023-11-21T08:02:15;5.70;;;4.50;;
562;SDS011;266;49.514;8.294;2023-11-21T08:04:46;5.07;;;4.57;;
562;SDS011;266;49.514;8.294;2023-11-21T08:07:15;5.70;;;4.60;;
562;SDS011;266;49.514;8.294;2023-11-21T08:09:44;6.90;;;5.00;;
562;SDS011;266;49.514;8.294;2023-11-21T08:12:14;5.83;;;5.13;;
562;SDS011;266;49.514;8.294;2023-11-21T08:14:42;6.00;;;4.97;;
562;SDS011;266;49.514;8.294;2023-11-21T08:17:10;7.33;;;5.80;;
562;SDS011;266;49.514;8.294;2023-11-21T08:19:40;7.07;;;6.03;;
562;SDS011;266;49.514;8.294;2023-11-21T08:22:09;7.73;;;4.83;;
562;SDS011;266;49.514;8.294;2023-11-21T08:24:37;8.40;;;5.60;;
562;SDS011;266;49.514;8.294;2023-11-21T08:27:05;6.23;;;5.63;;
562;SDS011;266;49.514;8.294;2023-11-21T08:29:33;13.97;;;5.33;;
562;SDS011;266;49.514;8.294;2023-11-21T08:32:02;6.70;;;6.00;;
562;SDS011;266;49.514;8.294;2023-11-21T08:34:32;7.23;;;5.93;;
562;SDS011;266;49.514;8.294;2023-11-21T08:37:00;6.50;;;4.93;;
562;SDS011;266;49.514;8.294;2023-11-21T08:39:29;10.03;;;6.43;;
562;SDS011;266;49.514;8.294;2023-11-21T08:41:58;5.80;;;4.30;;
562;SDS011;266;49.514;8.294;2023-11-21T08:44:25;5.33;;;4.77;;
562;SDS011;266;49.514;8.294;2023-11-21T08:46:53;5.93;;;5.03;;
562;SDS011;266;49.514;8.294;2023-11-21T08:49:21;7.60;;;5.40;;
562;SDS011;266;49.514;8.294;2023-11-21T08:51:49;7.60;;;5.20;;
562;SDS011;266;49.514;8.294;2023-11-21T08:54:17;5.77;;;4.43;;
562;SDS011;266;49.514;8.294;2023-11-21T08:56:47;6.40;;;4.20;;
562;SDS011;266;49.514;8.294;2023-11-21T08:59:16;11.20;;;4.10;;
562;SDS011;266;49.514;8.294;2023-11-21T09:01:46;6.63;;;4.30;;
562;SDS011;266;49.514;8.294;2023-11-21T09:04:14;5.47;;;4.67;;
562;SDS011;266;49.514;8.294;2023-11-21T09:06:42;7.97;;;5.97;;
562;SDS011;266;49.514;8.294;2023-11-21T09:09:11;7.50;;;6.53;;
562;SDS011;266;49.514;8.294;2023-11-21T09:11:39;8.53;;;7.03;;
562;SDS011;266;49.514;8.294;2023-11-21T09:14:08;5.47;;;4.53;;
562;SDS011;266;49.514;8.294;2023-11-21T09:16:36;4.60;;;4.20;;
562;SDS011;266;49.514;8.294;2023-11-21T09:19:05;6.50;;;4.60;;
562;SDS011;266;49.514;8.294;2023-11-21T09:21:33;6.43;;;5.13;;
562;SDS011;266;49.514;8.294;2023-11-21T09:24:01;10.67;;;5.00;;
562;SDS011;266;49.514;8.294;2023-11-21T09:26:29;5.67;;;4.27;;
562;SDS011;266;49.514;8.294;2023-11-21T09:28:57;5.80;;;4.37;;
562;SDS011;266;49.514;8.294;2023-11-21T09:31:26;5.03;;;4.53;;
562;SDS011;266;49.514;8.294;2023-11-21T09:33:54;6.13;;;4.60;;
562;SDS011;266;49.514;8.294;2023-11-21T09:36:23;9.30;;;5.07;;
562;SDS011;266;49.514;8.294;2023-11-21T09:38:54;5.30;;;4.80;;
562;SDS011;266;49.514;8.294;2023-11-21T09:41:23;5.80;;;5.20;;
562;SDS011;266;49.514;8.294;2023-11-21T09:44:02;7.03;;;5.40;;
562;SDS011;266;49.514;8.294;2023-11-21T09:46:35;4.97;;;4.27;;
562;SDS011;266;49.514;8.294;2023-11-21T09:49:05;8.57;;;5.93;;
562;SDS011;266;49.514;8.294;2023-11-21T09:51:39;5.23;;;4.73;;
562;SDS011;266;49.514;8.294;2023-11-21T09:54:10;6.70;;;4.47;;
562;SDS011;266;49.514;8.294;2023-11-21T09:56:38;6.83;;;4.97;;
562;SDS011;266;49.514;8.294;2023-11-21T09:59:06;6.23;;;4.17;;
562;SDS011;266;49.514;8.294;2023-11-21T10:01:37;5.03;;;4.43;;
562;SDS011;266;49.514;8.294;2023-11-21T10:04:08;4.23;;;3.83;;
562;SDS011;266;49.514;8.294;2023-11-21T10:06:38;5.10;;;4.33;;
562;SDS011;266;49.514;8.294;2023-11-21T10:09:08;4.57;;;3.90;;
562;SDS011;266;49.514;8.294;2023-11-21T10:11:40;5.17;;;3.87;;
562;SDS011;266;49.514;8.294;2023-11-21T10:14:10;10.33;;;3.67;;
562;SDS011;266;49.514;8.294;2023-11-21T10:16:42;8.33;;;4.67;;
562;SDS011;266;49.514;8.294;2023-11-21T10:19:13;4.80;;;3.67;;
562;SDS011;266;49.514;8.294;2023-11-21T10:21:42;5.50;;;3.27;;
562;SDS011;266;49.514;8.294;2023-11-21T10:24:10;5.60;;;3.20;;
562;SDS011;266;49.514;8.294;2023-11-21T10:26:38;4.53;;;2.97;;
562;SDS011;266;49.514;8.294;2023-11-21T10:29:18;3.73;;;3.37;;
562;SDS011;266;49.514;8.294;2023-11-21T10:31:50;3.60;;;3.30;;
562;SDS011;266;49.514;8.294;2023-11-21T10:34:21;4.40;;;4.00;;
562;SDS011;266;49.514;8.294;2023-11-21T10:36:49;4.17;;;3.77;;
562;SDS011;266;49.514;8.294;2023-11-21T10:39:18;5.10;;;4.30;;
562;SDS011;266;49.514;8.294;2023-11-21T10:41:49;3.50;;;3.20;;
562;SDS011;266;49.514;8.294;2023-11-21T10:44:18;3.90;;;3.40;;
562;SDS011;266;49.514;8.294;2023-11-21T10:46:50;4.70;;;4.30;;
562;SDS011;266;49.514;8.294;2023-11-21T10:49:22;12.57;;;4.73;;
562;SDS011;266;49.514;8.294;2023-11-21T10:51:52;4.60;;;4.00;;
562;SDS011;266;49.514;8.294;2023-11-21T10:54:22;4.50;;;4.10;;
562;SDS011;266;49.514;8.294;2023-11-21T10:56:53;4.93;;;3.20;;
562;SDS011;266;49.514;8.294;2023-11-21T10:59:23;4.77;;;3.67;;
562;SDS011;266;49.514;8.294;2023-11-21T11:01:57;5.60;;;4.00;;
562;SDS011;266;49.514;8.294;2023-11-21T11:04:27;3.53;;;3.23;;
562;SDS011;266;49.514;8.294;2023-11-21T11:06:56;3.70;;;2.97;;
562;SDS011;266;49.514;8.294;2023-11-21T11:09:31;3.60;;;3.30;;
562;SDS011;266;49.514;8.294;2023-11-21T11:12:02;3.97;;;3.67;;
562;SDS011;266;49.514;8.294;2023-11-21T11:14:32;5.20;;;3.40;;
562;SDS011;266;49.514;8.294;2023-11-21T11:17:02;4.33;;;3.93;;
562;SDS011;266;49.514;8.294;2023-11-21T11:19:32;4.83;;;3.53;;
562;SDS011;266;49.514;8.294;2023-11-21T11:22:04;4.20;;;3.60;;
562;SDS011;266;49.514;8.294;2023-11-21T11:24:56;3.83;;;3.43;;
562;SDS011;266;49.514;8.294;2023-11-21T11:27:40;3.57;;;3.23;;
562;SDS011;266;49.514;8.294;2023-11-21T11:30:19;4.07;;;3.67;;
562;SDS011;266;49.514;8.294;2023-11-21T11:33:07;4.27;;;3.03;;
562;SDS011;266;49.514;8.294;2023-11-21T11:35:42;3.57;;;2.23;;
562;SDS011;266;49.514;8.294;2023-11-21T11:38:20;2.83;;;2.40;;
562;SDS011;266;49.514;8.294;2023-11-21T11:40:52;8.03;;;2.73;;
562;SDS011;266;49.514;8.294;2023-11-21T11:43:26;4.30;;;2.50;;
562;SDS011;266;49.514;8.294;2023-11-21T11:45:55;2.23;;;2.00;;
562;SDS011;266;49.514;8.294;2023-11-21T11:48:26;1.87;;;1.77;;
562;SDS011;266;49.514;8.294;2023-11-21T11:51:01;2.63;;;1.53;;
562;SDS011;266;49.514;8.294;2023-11-21T11:53:35;3.53;;;2.03;;
562;SDS011;266;49.514;8.294;2023-11-21T11:59:02;2.17;;;1.90;;
562;SDS011;266;49.514;8.294;2023-11-21T12:01:31;4.80;;;2.43;;
562;SDS011;266;49.514;8.294;2023-11-21T12:07:01;2.40;;;1.67;;
562;SDS011;266;49.514;8.294;2023-11-21T12:09:33;2.37;;;1.90;;
562;SDS011;266;49.514;8.294;2023-11-21T12:12:01;1.73;;;1.63;;
562;SDS011;266;49.514;8.294;2023-11-21T12:14:30;1.97;;;1.80;;
562;SDS011;266;49.514;8.294;2023-11-21T12:16:58;1.80;;;1.60;;
562;SDS011;266;49.514;8.294;2023-11-21T12:19:30;1.40;;;1.30;;
562;SDS011;266;49.514;8.294;2023-11-21T12:21:58;1.70;;;1.40;;
562;SDS011;266;49.514;8.294;2023-11-21T12:24:27;1.40;;;1.30;;
562;SDS011;266;49.514;8.294;2023-11-21T12:26:56;3.70;;;1.33;;
562;SDS011;266;49.514;8.294;2023-11-21T12:32:01;1.43;;;1.30;;
562;SDS011;266;49.514;8.294;2023-11-21T12:34:30;3.50;;;2.17;;
562;SDS011;266;49.514;8.294;2023-11-21T12:37:05;1.97;;;1.40;;
562;SDS011;266;49.514;8.294;2023-11-21T12:39:33;2.33;;;1.60;;
562;SDS011;266;49.514;8.294;2023-11-21T12:42:00;1.70;;;1.50;;
562;SDS011;266;49.514;8.294;2023-11-21T12:44:29;2.27;;;1.73;;
562;SDS011;266;49.514;8.294;2023-11-21T12:46:57;1.93;;;1.50;;
562;SDS011;266;49.514;8.294;2023-11-21T12:49:27;3.13;;;1.50;;
562;SDS011;266;49.514;8.294;2023-11-21T12:51:56;2.10;;;1.40;;
562;SDS011;266;49.514;8.294;2023-11-21T12:54:24;3.00;;;1.30;;
562;SDS011;266;49.514;8.294;2023-11-21T12:56:52;3.77;;;1.93;;
562;SDS011;266;49.514;8.294;2023-11-21T12:59:21;2.33;;;1.70;;
562;SDS011;266;49.514;8.294;2023-11-21T13:01:49;2.63;;;1.70;;
562;SDS011;266;49.514;8.294;2023-11-21T13:04:18;2.10;;;1.93;;
562;SDS011;266;49.514;8.294;2023-11-21T13:06:46;2.00;;;1.80;;
562;SDS011;266;49.514;8.294;2023-11-21T13:09:15;1.60;;;1.50;;
562;SDS011;266;49.514;8.294;2023-11-21T13:11:48;1.60;;;1.50;;
562;SDS011;266;49.514;8.294;2023-11-21T13:14:16;2.50;;;1.60;;
562;SDS011;266;49.514;8.294;2023-11-21T13:16:44;1.63;;;1.53;;
562;SDS011;266;49.514;8.294;2023-11-21T13:19:13;1.83;;;1.70;;
562;SDS011;266;49.514;8.294;2023-11-21T13:21:41;1.73;;;1.63;;
562;SDS011;266;49.514;8.294;2023-11-21T13:24:10;1.57;;;1.47;;
562;SDS011;266;49.514;8.294;2023-11-21T13:26:39;2.00;;;1.63;;
562;SDS011;266;49.514;8.294;2023-11-21T13:29:08;5.93;;;2.20;;
562;SDS011;266;49.514;8.294;2023-11-21T13:31:39;4.33;;;1.90;;
562;SDS011;266;49.514;8.294;2023-11-21T13:34:07;4.43;;;1.90;;
562;SDS011;266;49.514;8.294;2023-11-21T13:36:35;4.70;;;2.60;;
562;SDS011;266;49.514;8.294;2023-11-21T13:39:03;4.53;;;2.47;;
562;SDS011;266;49.514;8.294;2023-11-21T13:41:34;3.57;;;2.20;;
562;SDS011;266;49.514;8.294;2023-11-21T13:44:06;2.50;;;2.30;;
562;SDS011;266;49.514;8.294;2023-11-21T13:46:43;2.37;;;2.17;;
562;SDS011;266;49.514;8.294;2023-11-21T13:49:12;4.30;;;2.00;;
562;SDS011;266;49.514;8.294;2023-11-21T13:51:42;3.73;;;2.17;;
562;SDS011;266;49.514;8.294;2023-11-21T13:54:11;2.30;;;2.10;;
562;SDS011;266;49.514;8.294;2023-11-21T13:56:40;2.70;;;2.50;;
562;SDS011;266;49.514;8.294;2023-11-21T13:59:13;2.60;;;2.40;;
562;SDS011;266;49.514;8.294;2023-11-21T14:01:47;3.83;;;2.20;;
562;SDS011;266;49.514;8.294;2023-11-21T14:04:23;2.03;;;1.90;;
562;SDS011;266;49.514;8.294;2023-11-21T14:07:25;2.53;;;2.33;;
562;SDS011;266;49.514;8.294;2023-11-21T14:09:59;2.30;;;1.83;;
562;SDS011;266;49.514;8.294;2023-11-21T14:12:27;4.87;;;2.60;;
562;SDS011;266;49.514;8.294;2023-11-21T14:14:57;4.77;;;2.90;;
562;SDS011;266;49.514;8.294;2023-11-21T14:17:26;2.77;;;2.10;;
562;SDS011;266;49.514;8.294;2023-11-21T14:19:56;4.27;;;2.70;;
562;SDS011;266;49.514;8.294;2023-11-21T14:22:25;2.57;;;1.80;;
562;SDS011;266;49.514;8.294;2023-11-21T14:24:53;2.80;;;2.37;;
562;SDS011;266;49.514;8.294;2023-11-21T14:27:25;4.43;;;2.70;;
562;SDS011;266;49.514;8.294;2023-11-21T14:29:53;4.97;;;2.70;;
562;SDS011;266;49.514;8.294;2023-11-21T14:32:24;2.70;;;2.13;;
562;SDS011;266;49.514;8.294;2023-11-21T14:34:53;7.27;;;3.10;;
562;SDS011;266;49.514;8.294;2023-11-21T14:37:22;2.37;;;2.17;;
562;SDS011;266;49.514;8.294;2023-11-21T14:39:50;4.03;;;2.77;;
562;SDS011;266;49.514;8.294;2023-11-21T14:42:18;2.97;;;2.63;;
562;SDS011;266;49.514;8.294;2023-11-21T14:44:51;3.30;;;2.40;;
562;SDS011;266;49.514;8.294;2023-11-21T14:47:21;3.23;;;2.13;;
562;SDS011;266;49.514;8.294;2023-11-21T14:49:54;3.73;;;2.43;;
562;SDS011;266;49.514;8.294;2023-11-21T14:52:26;2.63;;;2.30;;
562;SDS011;266;49.514;8.294;2023-11-21T15:02:15;3.87;;;1.93;;
562;SDS011;266;49.514;8.294;2023-11-21T15:04:46;4.20;;;2.30;;
562;SDS011;266;49.514;8.294;2023-11-21T15:07:15;3.63;;;2.70;;
562;SDS011;266;49.514;8.294;2023-11-21T15:09:43;4.10;;;2.07;;
562;SDS011;266;49.514;8.294;2023-11-21T15:12:11;2.70;;;2.47;;
562;SDS011;266;49.514;8.294;2023-11-21T15:14:43;4.50;;;2.37;;
562;SDS011;266;49.514;8.294;2023-11-21T15:17:14;4.67;;;2.80;;
562;SDS011;266;49.514;8.294;2023-11-21T15:19:49;3.23;;;2.63;;
562;SDS011;266;49.514;8.294;2023-11-21T15:22:19;4.07;;;2.80;;
562;SDS011;266;49.514;8.294;2023-11-21T15:24:47;2.50;;;2.30;;
562;SDS011;266;49.514;8.294;2023-11-21T15:27:16;2.53;;;2.33;;
562;SDS011;266;49.514;8.294;2023-11-21T15:29:45;3.23;;;2.93;;
562;SDS011;266;49.514;8.294;2023-11-21T15:32:13;7.90;;;3.00;;
562;SDS011;266;49.514;8.294;2023-11-21T15:34:41;2.73;;;2.53;;
562;SDS011;266;49.514;8.294;2023-11-21T15:37:09;5.33;;;3.00;;
562;SDS011;266;49.514;8.294;2023-11-21T15:39:39;3.03;;;2.73;;
562;SDS011;266;49.514;8.294;2023-11-21T15:42:09;3.63;;;3.13;;
562;SDS011;266;49.514;8.294;2023-11-21T15:44:37;2.93;;;2.63;;
562;SDS011;266;49.514;8.294;2023-11-21T15:47:06;4.57;;;3.10;;
562;SDS011;266;49.514;8.294;2023-11-21T15:49:35;4.17;;;3.07;;
562;SDS011;266;49.514;8.294;2023-11-21T15:52:04;3.23;;;2.80;;
562;SDS011;266;49.514;8.294;2023-11-21T15:54:37;7.23;;;2.50;;
562;SDS011;266;49.514;8.294;2023-11-21T15:57:07;3.37;;;3.07;;
562;SDS011;266;49.514;8.294;2023-11-21T15:59:39;3.77;;;2.93;;
562;SDS011;266;49.514;8.294;2023-11-21T16:02:09;3.70;;;2.93;;
562;SDS011;266;49.514;8.294;2023-11-21T16:04:39;3.23;;;2.93;;
562;SDS011;266;49.514;8.294;2023-11-21T16:07:07;4.53;;;3.60;;
562;SDS011;266;49.514;8.294;2023-11-21T16:09:37;4.63;;;2.87;;
562;SDS011;266;49.514;8.294;2023-11-21T16:12:08;3.60;;;3.30;;
562;SDS011;266;49.514;8.294;2023-11-21T16:14:38;4.10;;;3.23;;